Aviation Digital Data Service (ADDS)

Output produced by TAFs form (0226 UTC 03 September 2015)
found at http://www.aviationweather.gov/adds/tafs/
 
KSBY 022332Z 0300/0324 16005KT P6SM FEW050 BKN250 
     FM030500 00000KT 3SM BR BKN250 
     FM031300 33006KT 6SM HZ BKN250